createdAt,value
2022-08-09T00:06:17.202Z,0
2022-08-09T00:15:06.239Z,0
2022-08-09T00:24:38.994Z,0
2022-08-09T00:44:08.451Z,0
2022-08-09T00:53:29.206Z,0
2022-08-09T01:12:42.871Z,0
2022-08-09T01:22:18.847Z,0
2022-08-09T01:32:29.338Z,0
2022-08-09T01:41:33.214Z,0
2022-08-09T01:51:10.459Z,0
2022-08-09T02:00:50.384Z,0
2022-08-09T02:10:28.654Z,0
2022-08-09T02:20:02.176Z,0
2022-08-09T02:29:38.867Z,0
2022-08-09T02:39:19.853Z,0
2022-08-09T02:48:52.190Z,0
2022-08-09T02:58:33.137Z,0
2022-08-09T03:08:05.953Z,0
2022-08-09T03:17:43.162Z,0
2022-08-09T03:27:21.282Z,0
2022-08-09T03:36:58.416Z,0
2022-08-09T03:56:10.874Z,11.25
2022-08-09T04:05:47.654Z,22.5
2022-08-09T04:25:02.987Z,45
2022-08-09T04:34:39.254Z,56.25
2022-08-09T04:44:16.623Z,73.13
2022-08-09T04:53:54.273Z,84.38
2022-08-09T05:03:41.384Z,95.63
2022-08-09T05:13:08.589Z,101.25
2022-08-09T05:23:51.363Z,112.5
2022-08-09T05:32:24.365Z,118.13
2022-08-09T05:42:02.916Z,129.38
2022-08-09T05:51:43.290Z,135
2022-08-09T06:01:17.810Z,140.63
2022-08-09T06:20:33.698Z,157.5
2022-08-09T06:30:14.022Z,163.13
2022-08-09T06:39:58.321Z,168.75
2022-08-09T07:08:42.349Z,191.25
2022-08-09T07:18:20.449Z,196.88
2022-08-09T07:27:58.426Z,208.13
2022-08-09T07:37:40.463Z,213.75
2022-08-09T07:47:16.370Z,225
2022-08-09T07:56:52.760Z,236.25
2022-08-09T08:06:31.563Z,241.88
2022-08-09T08:16:30.116Z,247.5
2022-08-09T08:25:50.023Z,253.13
2022-08-09T08:35:28.316Z,264.38
2022-08-09T08:45:12.036Z,275.63
2022-08-09T08:54:43.471Z,286.88
2022-08-09T09:04:27.158Z,303.75
2022-08-09T09:14:01.011Z,309.38
2022-08-09T09:23:39.800Z,331.88
2022-08-09T09:33:18.453Z,360
2022-08-09T09:43:00.452Z,2306.25
2022-08-09T09:52:56.000Z,2536.88
2022-08-09T10:02:40.405Z,2514.38
2022-08-09T10:12:28.269Z,2536.88
2022-08-09T10:22:01.672Z,3459.38
2022-08-09T10:41:06.511Z,3853.13
2022-08-09T10:51:02.720Z,3015
2022-08-09T11:00:51.182Z,3166.88
2022-08-09T11:10:20.574Z,3459.38
2022-08-09T11:20:07.596Z,967.5
2022-08-09T11:30:05.340Z,2210.63
2022-08-09T11:58:39.260Z,3796.88
2022-08-09T12:08:31.320Z,3813.75
2022-08-09T12:18:05.608Z,973.13
2022-08-09T12:29:00.899Z,945
2022-08-09T12:37:32.570Z,3948.75
2022-08-09T12:46:48.692Z,916.88
2022-08-09T12:56:53.869Z,3510
2022-08-09T13:06:35.833Z,2559.38
2022-08-09T13:15:45.461Z,776.25
2022-08-09T13:25:17.636Z,3296.25
2022-08-09T13:44:57.451Z,2677.5
2022-08-09T13:54:34.171Z,725.63
2022-08-09T14:14:16.859Z,2733.75
2022-08-09T14:23:22.990Z,2497.5
2022-08-09T14:33:06.851Z,2497.5
2022-08-09T14:51:46.098Z,545.63
2022-08-09T15:01:21.756Z,2401.88
2022-08-09T15:11:16.578Z,2233.13
2022-08-09T15:39:53.299Z,798.75
2022-08-09T15:49:28.521Z,781.88
2022-08-09T16:18:17.901Z,292.5
2022-08-09T16:27:53.073Z,326.25
2022-08-09T16:37:54.215Z,309.38
2022-08-09T16:48:37.043Z,275.63
2022-08-09T16:56:49.013Z,241.88
2022-08-09T17:06:29.490Z,208.13
2022-08-09T17:25:34.130Z,163.13
2022-08-09T17:35:12.689Z,135
2022-08-09T17:44:49.294Z,112.5
2022-08-09T17:54:25.265Z,90
2022-08-09T18:04:01.633Z,67.5
2022-08-09T18:13:54.632Z,50.63
2022-08-09T18:24:09.278Z,33.75
2022-08-09T18:32:54.175Z,22.5
2022-08-09T18:42:28.314Z,11.25
2022-08-09T18:52:04.132Z,5.63
2022-08-09T19:11:17.594Z,0
2022-08-09T19:20:56.825Z,0
2022-08-09T19:30:32.287Z,0
2022-08-09T19:50:04.948Z,0
2022-08-09T20:08:59.438Z,0
2022-08-09T20:18:35.019Z,0
2022-08-09T20:28:12.871Z,0
2022-08-09T20:57:02.150Z,0
2022-08-09T21:06:41.285Z,0
2022-08-09T21:16:19.607Z,0
2022-08-09T21:35:31.753Z,0
2022-08-09T21:45:06.164Z,0
2022-08-09T21:54:43.288Z,0
2022-08-09T22:04:20.621Z,0
2022-08-09T22:13:57.005Z,0
2022-08-09T22:23:35.291Z,0
2022-08-09T22:33:10.595Z,0
2022-08-09T22:42:47.808Z,0
2022-08-09T22:52:24.654Z,0
2022-08-09T23:02:02.002Z,0
2022-08-09T23:11:39.104Z,0
2022-08-09T23:21:15.928Z,0
2022-08-09T23:30:53.158Z,0
2022-08-09T23:50:06.673Z,0
2022-08-09T23:59:43.542Z,0
